createdAt,value
2018-11-29T00:01:02.446Z,77.30
2018-11-29T00:03:07.870Z,78.20
2018-11-29T00:05:11.594Z,78.70
2018-11-29T00:07:15.081Z,79.10
2018-11-29T00:09:18.674Z,79.00
2018-11-29T00:11:22.366Z,78.10
2018-11-29T00:13:25.904Z,77.30
2018-11-29T00:15:29.417Z,77.00
2018-11-29T00:17:33.121Z,76.30
2018-11-29T00:19:36.626Z,75.50
2018-11-29T00:21:40.140Z,75.70
2018-11-29T00:23:43.698Z,76.70
2018-11-29T00:25:47.426Z,77.40
2018-11-29T00:27:50.950Z,78.40
2018-11-29T00:29:54.489Z,79.10
2018-11-29T00:31:58.114Z,79.40
2018-11-29T00:34:01.698Z,79.80
2018-11-29T00:36:05.396Z,79.20
2018-11-29T00:38:09.029Z,79.00
2018-11-29T00:40:14.438Z,79.80
2018-11-29T00:42:18.599Z,79.20
2018-11-29T00:44:22.114Z,77.80
2018-11-29T00:46:25.723Z,76.70
2018-11-29T00:48:29.310Z,76.20
2018-11-29T00:50:32.816Z,76.40
2018-11-29T00:52:36.947Z,76.70
2018-11-29T00:54:40.422Z,76.20
2018-11-29T00:56:44.105Z,75.80
2018-11-29T00:58:47.632Z,75.70
2018-11-29T01:00:51.131Z,76.10
2018-11-29T01:02:54.760Z,75.90
2018-11-29T01:04:58.275Z,76.40
2018-11-29T01:07:01.878Z,76.80
2018-11-29T01:09:08.266Z,77.70
2018-11-29T01:11:12.487Z,78.00
2018-11-29T01:13:16.068Z,78.00
2018-11-29T01:15:20.534Z,77.90
2018-11-29T01:17:24.042Z,78.10
2018-11-29T01:19:27.648Z,77.80
2018-11-29T01:21:31.169Z,77.00
2018-11-29T01:23:34.665Z,77.00
2018-11-29T01:25:38.183Z,76.70
2018-11-29T01:27:42.494Z,76.90
2018-11-29T01:29:46.119Z,77.40
2018-11-29T01:31:49.637Z,76.90
2018-11-29T01:33:53.329Z,77.20
2018-11-29T01:35:56.954Z,78.70
2018-11-29T01:38:00.609Z,79.30
2018-11-29T01:40:04.417Z,79.20
2018-11-29T01:42:07.954Z,79.40
2018-11-29T01:44:11.474Z,80.00
2018-11-29T01:46:15.013Z,80.20
2018-11-29T01:48:18.630Z,79.80
2018-11-29T01:50:22.192Z,79.60
2018-11-29T01:52:25.701Z,80.10
2018-11-29T01:54:29.334Z,79.40
2018-11-29T01:56:32.842Z,80.70
2018-11-29T01:58:36.484Z,80.60
2018-11-29T02:00:40.029Z,80.20
2018-11-29T02:02:44.219Z,79.70
2018-11-29T02:04:47.894Z,80.80
2018-11-29T02:06:51.523Z,80.30
2018-11-29T02:08:55.145Z,79.40
2018-11-29T02:10:58.885Z,80.10
2018-11-29T02:13:02.486Z,79.10
2018-11-29T02:15:07.606Z,78.90
2018-11-29T02:17:11.206Z,79.20
2018-11-29T02:19:14.794Z,78.90
2018-11-29T02:21:18.288Z,78.80
2018-11-29T02:23:21.801Z,78.60
2018-11-29T02:25:25.330Z,78.40
2018-11-29T02:27:28.901Z,79.40
2018-11-29T02:29:32.652Z,81.10
2018-11-29T02:31:37.732Z,81.40
2018-11-29T02:33:41.205Z,81.30
2018-11-29T02:35:44.938Z,79.70
2018-11-29T02:37:48.766Z,79.00
2018-11-29T02:39:52.366Z,78.90
2018-11-29T02:41:55.903Z,79.00
2018-11-29T02:43:59.472Z,80.70
2018-11-29T02:46:03.018Z,82.20
2018-11-29T02:48:07.193Z,81.30
2018-11-29T02:50:11.575Z,81.20
2018-11-29T02:52:15.085Z,81.60
2018-11-29T02:54:18.845Z,81.90
2018-11-29T02:56:22.414Z,82.30
2018-11-29T02:58:25.978Z,83.30
2018-11-29T03:00:29.681Z,83.50
2018-11-29T03:02:33.279Z,83.60
2018-11-29T03:04:36.951Z,82.70
2018-11-29T03:06:40.441Z,83.80
2018-11-29T03:08:43.959Z,84.60
2018-11-29T03:10:47.454Z,83.70
2018-11-29T03:12:51.008Z,84.10
2018-11-29T03:14:54.610Z,83.90
2018-11-29T03:16:58.129Z,83.00
2018-11-29T03:19:01.953Z,82.40
2018-11-29T03:21:06.126Z,82.70
2018-11-29T03:23:09.861Z,81.80
2018-11-29T03:25:15.374Z,80.90
2018-11-29T03:27:19.066Z,80.70
2018-11-29T03:29:22.624Z,80.30
2018-11-29T03:31:26.382Z,80.00
2018-11-29T03:33:29.913Z,79.70
2018-11-29T03:35:33.606Z,78.90
2018-11-29T03:37:37.230Z,77.90
2018-11-29T03:39:40.777Z,77.50
2018-11-29T03:41:44.841Z,77.30
2018-11-29T03:43:48.564Z,77.30
2018-11-29T03:45:52.272Z,76.70
2018-11-29T03:47:55.837Z,76.40
2018-11-29T03:49:59.642Z,76.10
2018-11-29T03:52:04.523Z,75.90
2018-11-29T03:54:08.251Z,75.80
2018-11-29T03:56:11.755Z,75.50
2018-11-29T03:58:15.288Z,75.20
2018-11-29T04:00:18.860Z,76.00
2018-11-29T04:02:22.414Z,76.80
2018-11-29T04:04:26.007Z,77.00
2018-11-29T04:06:29.775Z,76.40
2018-11-29T04:08:33.386Z,75.80
2018-11-29T04:10:36.924Z,75.70
2018-11-29T04:12:40.618Z,75.40
2018-11-29T04:14:44.212Z,76.00
2018-11-29T04:16:47.814Z,75.00
2018-11-29T04:18:51.387Z,75.70
2018-11-29T04:20:55.906Z,75.90
2018-11-29T04:22:59.483Z,77.00
2018-11-29T04:25:03.062Z,77.50
2018-11-29T04:27:06.859Z,77.70
2018-11-29T04:29:10.350Z,76.90
2018-11-29T04:31:13.879Z,76.10
2018-11-29T04:33:17.517Z,75.60
2018-11-29T04:35:21.145Z,75.60
2018-11-29T04:37:24.768Z,75.80
2018-11-29T04:39:28.337Z,75.80
2018-11-29T04:41:32.036Z,75.60
2018-11-29T04:43:35.773Z,75.50
2018-11-29T04:46:46.638Z,75.40
2018-11-29T04:48:50.309Z,76.20
2018-11-29T04:50:53.823Z,77.00
2018-11-29T04:52:57.414Z,76.90
2018-11-29T04:55:01.078Z,77.40
2018-11-29T04:57:04.627Z,78.10
2018-11-29T04:59:08.453Z,78.00
2018-11-29T05:01:11.990Z,78.90
2018-11-29T05:03:15.562Z,79.60
2018-11-29T05:05:19.135Z,79.90
2018-11-29T05:07:22.730Z,79.50
2018-11-29T05:09:26.242Z,78.40
2018-11-29T05:11:29.984Z,77.70
2018-11-29T05:13:33.498Z,77.60
2018-11-29T05:15:38.237Z,76.90
2018-11-29T05:17:41.790Z,76.20
2018-11-29T05:19:45.268Z,75.70
2018-11-29T05:21:48.858Z,75.70
2018-11-29T05:23:52.392Z,75.60
2018-11-29T05:25:55.938Z,75.50
2018-11-29T05:27:59.466Z,75.60
2018-11-29T05:30:02.961Z,75.50
2018-11-29T05:32:06.918Z,75.30
2018-11-29T05:34:10.056Z,75.40
2018-11-29T05:36:13.709Z,75.80
2018-11-29T05:38:17.263Z,75.60
2018-11-29T05:40:20.914Z,75.60
2018-11-29T05:42:24.453Z,75.60
2018-11-29T05:44:27.974Z,75.60
2018-11-29T05:46:31.504Z,75.90
2018-11-29T05:48:35.205Z,76.00
2018-11-29T05:50:38.711Z,75.80
2018-11-29T05:52:42.274Z,75.70
2018-11-29T05:54:45.773Z,75.60
2018-11-29T05:56:51.659Z,75.40
2018-11-29T05:58:55.395Z,75.30
2018-11-29T06:01:01.391Z,75.30
2018-11-29T06:03:05.497Z,75.60
2018-11-29T06:05:10.213Z,75.70
2018-11-29T06:07:13.794Z,76.70
2018-11-29T06:09:17.277Z,78.40
2018-11-29T06:11:20.918Z,78.70
2018-11-29T06:13:24.414Z,77.80
2018-11-29T06:15:27.983Z,76.60
2018-11-29T06:17:31.553Z,76.70
2018-11-29T06:19:35.175Z,76.50
2018-11-29T06:21:38.819Z,76.00
2018-11-29T06:23:42.486Z,75.70
2018-11-29T06:25:46.982Z,76.30
2018-11-29T06:27:51.051Z,76.20
2018-11-29T06:29:54.561Z,76.10
2018-11-29T06:31:58.151Z,75.90
2018-11-29T06:34:01.685Z,77.30
2018-11-29T06:36:05.326Z,77.80
2018-11-29T06:38:08.881Z,77.30
2018-11-29T06:40:13.529Z,76.80
2018-11-29T06:42:17.072Z,76.30
2018-11-29T06:44:20.582Z,76.30
2018-11-29T06:46:24.117Z,76.00
2018-11-29T06:48:27.643Z,75.50
2018-11-29T06:50:31.353Z,75.20
2018-11-29T06:52:34.919Z,75.30
2018-11-29T06:54:38.429Z,75.00
2018-11-29T06:56:42.091Z,75.10
2018-11-29T06:58:45.614Z,75.30
2018-11-29T07:00:49.167Z,75.20
2018-11-29T07:02:52.815Z,75.00
2018-11-29T07:05:03.029Z,74.70
2018-11-29T07:07:06.664Z,74.50
2018-11-29T07:09:10.179Z,74.60
2018-11-29T07:11:13.744Z,75.80
2018-11-29T07:13:17.261Z,76.90
2018-11-29T07:15:20.778Z,77.10
2018-11-29T07:17:24.390Z,77.60
2018-11-29T07:19:28.191Z,77.30
2018-11-29T07:21:55.205Z,76.80
2018-11-29T07:23:59.006Z,76.90
2018-11-29T07:26:02.492Z,76.60
2018-11-29T07:28:06.098Z,76.30
2018-11-29T07:30:14.111Z,75.70
2018-11-29T07:32:21.995Z,75.40
2018-11-29T07:34:25.578Z,75.20
2018-11-29T07:36:29.098Z,75.20
2018-11-29T07:38:32.621Z,75.40
2018-11-29T07:40:36.217Z,75.00
2018-11-29T07:42:40.137Z,74.80
2018-11-29T07:44:43.779Z,74.20
2018-11-29T07:46:47.310Z,73.90
2018-11-29T07:48:51.477Z,74.00
2018-11-29T07:50:54.998Z,73.90
2018-11-29T07:52:58.566Z,74.10
2018-11-29T07:55:02.314Z,74.60
2018-11-29T07:57:05.877Z,74.30
2018-11-29T07:59:09.495Z,74.60
2018-11-29T08:01:13.033Z,76.20
2018-11-29T08:03:16.527Z,76.20
2018-11-29T08:05:20.090Z,76.00
2018-11-29T08:07:23.658Z,75.70
2018-11-29T08:09:27.245Z,75.40
2018-11-29T08:11:30.747Z,75.50
2018-11-29T08:13:34.535Z,75.30
2018-11-29T08:15:38.987Z,75.20
2018-11-29T08:17:41.593Z,75.10
2018-11-29T08:19:45.108Z,75.90
2018-11-29T08:21:48.661Z,76.40
2018-11-29T08:23:52.262Z,76.50
2018-11-29T08:25:55.788Z,77.80
2018-11-29T08:27:59.313Z,79.30
2018-11-29T08:30:02.910Z,80.20
2018-11-29T08:32:06.627Z,78.70
2018-11-29T08:34:10.251Z,77.50
2018-11-29T08:36:13.823Z,77.40
2018-11-29T08:38:17.372Z,76.20
2018-11-29T08:40:21.435Z,75.10
2018-11-29T08:42:25.048Z,74.80
2018-11-29T08:44:28.709Z,74.30
2018-11-29T08:46:32.222Z,75.30
2018-11-29T08:48:35.730Z,75.80
2018-11-29T08:50:39.252Z,75.30
2018-11-29T08:52:44.302Z,74.70
2018-11-29T08:54:48.439Z,74.70
2018-11-29T08:56:52.170Z,74.70
2018-11-29T08:58:55.730Z,74.50
2018-11-29T09:00:59.429Z,74.70
2018-11-29T09:03:03.082Z,74.70
2018-11-29T09:05:07.639Z,74.40
2018-11-29T09:07:11.234Z,74.20
2018-11-29T09:09:14.848Z,74.20
2018-11-29T09:11:18.485Z,73.90
2018-11-29T09:13:21.978Z,74.80
2018-11-29T09:15:25.553Z,74.90
2018-11-29T09:17:29.245Z,75.70
2018-11-29T09:19:37.316Z,75.00
2018-11-29T09:21:36.251Z,75.10
2018-11-29T09:23:40.005Z,75.10
2018-11-29T09:25:43.636Z,74.80
2018-11-29T09:27:47.204Z,74.70
2018-11-29T09:29:50.786Z,74.90
2018-11-29T09:31:54.278Z,74.90
2018-11-29T09:33:58.758Z,75.10
2018-11-29T09:36:02.322Z,75.10
2018-11-29T09:38:05.835Z,74.70
2018-11-29T09:40:12.494Z,73.90
2018-11-29T09:42:16.020Z,74.20
2018-11-29T09:44:19.711Z,74.30
2018-11-29T09:46:23.279Z,74.70
2018-11-29T09:48:28.371Z,74.30
2018-11-29T09:50:30.474Z,74.60
2018-11-29T09:52:33.974Z,74.60
2018-11-29T09:54:37.486Z,74.50
2018-11-29T09:56:41.215Z,75.80
2018-11-29T09:58:44.868Z,75.50
2018-11-29T10:00:48.409Z,74.60
2018-11-29T10:03:05.436Z,76.80
2018-11-29T10:05:10.160Z,76.50
2018-11-29T10:07:13.974Z,76.00
2018-11-29T10:09:17.712Z,75.80
2018-11-29T10:11:21.235Z,74.90
2018-11-29T10:13:24.754Z,74.00
2018-11-29T10:15:28.475Z,73.80
2018-11-29T10:17:32.006Z,73.30
2018-11-29T10:19:35.612Z,72.80
2018-11-29T10:21:39.125Z,73.20
2018-11-29T10:23:42.617Z,73.30
2018-11-29T10:25:46.262Z,73.30
2018-11-29T10:27:55.562Z,73.40
2018-11-29T10:29:59.086Z,74.00
2018-11-29T10:32:02.691Z,75.50
2018-11-29T10:34:06.273Z,75.40
2018-11-29T10:36:09.992Z,74.50
2018-11-29T10:38:13.513Z,75.30
2018-11-29T10:40:17.206Z,74.70
2018-11-29T10:42:20.921Z,74.50
2018-11-29T10:44:24.608Z,74.40
2018-11-29T10:46:28.230Z,74.50
2018-11-29T10:48:31.730Z,75.00
2018-11-29T10:50:35.214Z,75.00
2018-11-29T10:52:38.776Z,74.70
2018-11-29T10:54:42.362Z,73.50
2018-11-29T10:56:45.886Z,73.30
2018-11-29T10:58:49.469Z,72.60
2018-11-29T11:00:58.408Z,72.00
2018-11-29T11:03:08.853Z,71.30
2018-11-29T11:05:12.418Z,71.20
2018-11-29T11:07:16.066Z,71.30
2018-11-29T11:09:19.622Z,71.20
2018-11-29T11:11:23.145Z,71.30
2018-11-29T11:13:26.859Z,72.70
2018-11-29T11:15:30.436Z,75.20
2018-11-29T11:17:34.115Z,75.40
2018-11-29T11:19:37.693Z,74.80
2018-11-29T11:21:41.238Z,73.90
2018-11-29T11:23:44.842Z,73.60
2018-11-29T11:25:48.385Z,73.70
2018-11-29T11:27:52.260Z,73.80
2018-11-29T11:29:55.761Z,75.00
2018-11-29T11:31:59.361Z,75.90
2018-11-29T11:34:02.854Z,76.10
2018-11-29T11:36:06.518Z,75.40
2018-11-29T11:38:10.100Z,74.30
2018-11-29T11:40:17.205Z,73.00
2018-11-29T11:42:20.843Z,72.60
2018-11-29T11:44:24.374Z,72.80
2018-11-29T11:46:27.901Z,72.20
2018-11-29T11:48:31.530Z,72.00
2018-11-29T11:50:35.408Z,72.00
2018-11-29T11:52:38.969Z,71.60
2018-11-29T11:54:42.465Z,71.30
2018-11-29T11:56:46.066Z,71.70
2018-11-29T11:58:49.565Z,72.50
2018-11-29T12:00:53.161Z,73.10
2018-11-29T12:03:02.119Z,73.50
2018-11-29T12:05:06.802Z,73.10
2018-11-29T12:07:10.314Z,73.60
2018-11-29T12:09:13.821Z,72.60
2018-11-29T12:11:17.331Z,73.80
2018-11-29T12:13:24.529Z,75.80
2018-11-29T12:15:28.106Z,78.60
2018-11-29T12:17:31.725Z,78.90
2018-11-29T12:19:35.409Z,79.00
2018-11-29T12:21:38.946Z,76.70
2018-11-29T12:23:42.427Z,76.00
2018-11-29T12:25:45.966Z,74.70
2018-11-29T12:27:50.098Z,74.40
2018-11-29T12:29:53.667Z,74.20
2018-11-29T12:31:57.230Z,73.40
2018-11-29T12:34:00.823Z,73.20
2018-11-29T12:36:04.403Z,74.40
2018-11-29T12:38:07.904Z,75.60
2018-11-29T12:40:12.940Z,74.70
2018-11-29T12:42:16.473Z,74.20
2018-11-29T12:44:20.030Z,73.80
2018-11-29T12:46:23.509Z,73.10
2018-11-29T12:48:27.038Z,73.00
2018-11-29T12:50:30.688Z,73.10
2018-11-29T12:52:34.518Z,73.00
2018-11-29T12:54:38.070Z,73.00
2018-11-29T12:56:41.566Z,73.00
2018-11-29T12:58:46.360Z,73.30
2018-11-29T13:00:49.911Z,72.70
2018-11-29T13:02:54.534Z,73.30
2018-11-29T13:04:58.052Z,73.60
2018-11-29T13:07:01.618Z,73.10
2018-11-29T13:09:11.859Z,72.10
2018-11-29T13:11:15.752Z,71.10
2018-11-29T13:13:19.373Z,71.70
2018-11-29T13:15:28.201Z,71.70
2018-11-29T13:17:31.742Z,71.00
2018-11-29T13:19:35.373Z,69.80
2018-11-29T13:21:39.154Z,69.90
2018-11-29T13:23:42.734Z,69.50
2018-11-29T13:25:46.293Z,69.60
2018-11-29T13:27:50.174Z,70.30
2018-11-29T13:29:53.750Z,70.00
2018-11-29T13:31:57.243Z,70.00
2018-11-29T13:34:01.135Z,69.80
2018-11-29T13:36:05.066Z,69.40
2018-11-29T13:38:12.107Z,69.10
2018-11-29T13:40:15.653Z,69.00
2018-11-29T13:42:19.453Z,69.10
2018-11-29T13:44:22.989Z,69.10
2018-11-29T13:46:26.484Z,69.10
2018-11-29T13:48:30.022Z,69.40
2018-11-29T13:50:33.679Z,69.50
2018-11-29T13:52:37.210Z,69.40
2018-11-29T13:54:40.741Z,69.50
2018-11-29T13:56:44.419Z,69.00
2018-11-29T13:58:48.082Z,69.20
2018-11-29T14:00:51.665Z,69.70
2018-11-29T14:02:56.700Z,70.00
2018-11-29T14:05:00.260Z,70.60
2018-11-29T14:07:03.769Z,70.60
2018-11-29T14:09:09.034Z,70.90
2018-11-29T14:11:12.651Z,70.70
2018-11-29T14:13:17.304Z,70.50
2018-11-29T14:15:23.978Z,70.70
2018-11-29T14:17:27.609Z,70.30
2018-11-29T14:19:31.150Z,70.50
2018-11-29T14:21:34.864Z,70.30
2018-11-29T14:23:38.491Z,70.40
2018-11-29T14:25:42.040Z,70.70
2018-11-29T14:27:47.641Z,70.70
2018-11-29T14:29:52.889Z,70.60
2018-11-29T14:31:56.570Z,70.70
2018-11-29T14:34:00.159Z,70.80
2018-11-29T14:36:03.690Z,71.70
2018-11-29T14:38:07.406Z,71.50
2018-11-29T14:40:13.938Z,71.00
2018-11-29T14:42:17.643Z,70.90
2018-11-29T14:44:21.310Z,70.80
2018-11-29T14:46:24.840Z,70.70
2018-11-29T14:48:28.382Z,70.90
2018-11-29T14:50:42.011Z,71.10
2018-11-29T14:52:45.761Z,71.10
2018-11-29T14:54:49.317Z,71.20
2018-11-29T14:56:52.956Z,71.50
2018-11-29T14:58:56.590Z,71.40
2018-11-29T15:01:00.249Z,71.50
2018-11-29T15:05:01.618Z,71.10
2018-11-29T15:07:05.198Z,70.70
2018-11-29T15:09:09.311Z,70.80
2018-11-29T15:11:12.842Z,70.90
2018-11-29T15:13:16.358Z,70.90
2018-11-29T15:15:19.915Z,71.00
2018-11-29T15:17:23.606Z,70.80
2018-11-29T15:19:27.114Z,71.00
2018-11-29T15:21:30.846Z,70.90
2018-11-29T15:23:34.410Z,71.20
2018-11-29T15:25:37.961Z,71.20
2018-11-29T15:27:41.721Z,71.00
2018-11-29T15:29:45.204Z,70.90
2018-11-29T15:31:48.759Z,71.10
2018-11-29T15:33:52.354Z,71.60
2018-11-29T15:35:55.854Z,71.90
2018-11-29T15:37:59.427Z,73.30
2018-11-29T15:40:04.705Z,73.70
2018-11-29T15:42:08.301Z,73.90
2018-11-29T15:44:11.943Z,73.70
2018-11-29T15:46:15.641Z,73.50
2018-11-29T15:48:19.286Z,73.80
2018-11-29T15:50:22.819Z,73.70
2018-11-29T15:52:26.434Z,73.50
2018-11-29T15:54:30.041Z,73.50
2018-11-29T15:56:33.694Z,73.30
2018-11-29T15:58:37.363Z,71.90
2018-11-29T16:00:40.893Z,71.80
2018-11-29T16:02:45.128Z,71.70
2018-11-29T16:04:48.731Z,71.60
2018-11-29T16:06:52.417Z,71.60
2018-11-29T16:08:55.944Z,72.90
2018-11-29T16:10:59.654Z,72.90
2018-11-29T16:13:03.454Z,71.90
2018-11-29T16:15:13.517Z,71.60
2018-11-29T16:17:17.023Z,71.60
2018-11-29T16:19:20.735Z,71.70
2018-11-29T16:21:24.298Z,71.60
2018-11-29T16:23:27.938Z,71.60
2018-11-29T16:25:31.554Z,71.90
2018-11-29T16:27:35.060Z,71.60
2018-11-29T16:29:38.757Z,71.40
2018-11-29T16:31:42.282Z,71.20
2018-11-29T16:33:45.866Z,71.10
2018-11-29T16:35:49.526Z,71.10
2018-11-29T16:37:53.037Z,70.80
2018-11-29T16:39:56.568Z,70.80
2018-11-29T16:42:00.282Z,71.10
2018-11-29T16:44:03.853Z,72.40
2018-11-29T16:46:07.481Z,72.30
2018-11-29T16:48:11.044Z,72.00
2018-11-29T16:50:15.684Z,72.10
2018-11-29T16:52:19.401Z,72.20
2018-11-29T16:54:23.158Z,72.60
2018-11-29T16:56:26.694Z,72.60
2018-11-29T16:58:31.031Z,72.50
2018-11-29T17:00:34.607Z,72.70
2018-11-29T17:02:38.481Z,72.90
2018-11-29T17:04:42.002Z,73.20
2018-11-29T17:06:45.635Z,74.20
2018-11-29T17:08:49.196Z,74.00
2018-11-29T17:10:52.983Z,73.40
2018-11-29T17:12:58.890Z,72.80
2018-11-29T17:15:02.564Z,72.60
2018-11-29T17:17:07.121Z,72.20
2018-11-29T17:19:10.737Z,72.20
2018-11-29T17:21:14.307Z,72.50
2018-11-29T17:23:17.827Z,72.60
2018-11-29T17:25:21.494Z,72.60
2018-11-29T17:27:24.985Z,72.20
2018-11-29T17:29:29.333Z,72.70
2018-11-29T17:31:32.997Z,72.70
2018-11-29T17:33:36.608Z,74.60
2018-11-29T17:35:40.322Z,74.90
2018-11-29T17:37:43.909Z,75.20
2018-11-29T17:39:47.680Z,75.40
2018-11-29T17:41:51.286Z,74.20
2018-11-29T17:43:54.872Z,74.00
2018-11-29T17:45:58.625Z,74.30
2018-11-29T17:48:04.128Z,74.40
2018-11-29T17:50:10.266Z,74.30
2018-11-29T17:52:13.949Z,74.70
2018-11-29T17:54:17.512Z,74.80
2018-11-29T17:56:21.141Z,74.20
2018-11-29T17:58:24.719Z,73.20
2018-11-29T18:00:29.896Z,72.50
2018-11-29T18:02:33.479Z,73.60
2018-11-29T18:04:37.054Z,74.00
2018-11-29T18:06:40.611Z,73.60
2018-11-29T18:08:44.131Z,76.10
2018-11-29T18:10:49.773Z,76.30
2018-11-29T18:13:31.279Z,75.70
2018-11-29T18:15:35.569Z,74.50
2018-11-29T18:17:39.135Z,73.60
2018-11-29T18:19:42.698Z,72.80
2018-11-29T18:21:46.433Z,73.70
2018-11-29T18:23:50.002Z,73.30
2018-11-29T18:25:53.647Z,73.30
2018-11-29T18:27:57.495Z,73.00
2018-11-29T18:30:02.989Z,72.10
2018-11-29T18:32:07.002Z,72.90
2018-11-29T18:34:10.593Z,72.80
2018-11-29T18:36:20.745Z,72.60
2018-11-29T18:38:24.382Z,73.00
2018-11-29T18:40:28.037Z,73.70
2018-11-29T18:42:31.626Z,73.40
2018-11-29T18:44:35.226Z,73.30
2018-11-29T18:46:40.345Z,72.70
2018-11-29T18:48:44.091Z,72.50
2018-11-29T18:50:47.647Z,72.30
2018-11-29T18:52:51.556Z,72.10
2018-11-29T18:54:55.126Z,72.10
2018-11-29T18:56:58.681Z,71.90
2018-11-29T18:59:02.226Z,71.80
2018-11-29T19:01:12.590Z,71.60
2018-11-29T19:03:16.094Z,71.50
2018-11-29T19:05:19.711Z,71.90
2018-11-29T19:07:23.397Z,71.80
2018-11-29T19:09:27.027Z,71.80
2018-11-29T19:11:30.693Z,71.60
2018-11-29T19:13:34.287Z,71.20
2018-11-29T19:15:38.340Z,70.90
2018-11-29T19:17:41.884Z,71.30
2018-11-29T19:19:45.410Z,71.30
2018-11-29T19:21:49.183Z,71.30
2018-11-29T19:23:52.701Z,71.70
2018-11-29T19:25:56.382Z,71.70
2018-11-29T19:27:59.956Z,72.10
2018-11-29T19:30:04.428Z,72.40
2018-11-29T19:32:07.398Z,72.30
2018-11-29T19:34:11.010Z,72.30
2018-11-29T19:36:14.667Z,72.10
2018-11-29T19:38:18.275Z,71.90
2018-11-29T19:40:21.818Z,71.50
2018-11-29T19:42:25.421Z,71.20
2018-11-29T19:44:31.290Z,71.30
2018-11-29T19:46:34.868Z,71.20
2018-11-29T19:48:38.422Z,71.20
2018-11-29T19:50:42.106Z,71.20
2018-11-29T19:52:51.248Z,71.30
2018-11-29T19:54:54.950Z,71.30
2018-11-29T19:56:58.551Z,71.50
2018-11-29T19:59:02.210Z,71.80
2018-11-29T20:01:07.238Z,72.20
2018-11-29T20:03:10.905Z,73.10
2018-11-29T20:05:14.606Z,73.30
2018-11-29T20:07:18.229Z,72.90
2018-11-29T20:09:22.005Z,73.00
2018-11-29T20:11:25.569Z,73.40
2018-11-29T20:13:29.118Z,73.70
2018-11-29T20:15:32.683Z,73.30
2018-11-29T20:17:36.187Z,73.00
2018-11-29T20:19:39.693Z,72.60
2018-11-29T20:21:43.229Z,72.50
2018-11-29T20:23:46.822Z,72.40
2018-11-29T20:25:50.378Z,72.90
2018-11-29T20:27:54.158Z,72.10
2018-11-29T20:30:07.282Z,72.00
2018-11-29T20:32:10.866Z,71.90
2018-11-29T20:34:14.444Z,71.90
2018-11-29T20:36:18.003Z,71.80
2018-11-29T20:38:21.606Z,72.00
2018-11-29T20:40:26.433Z,71.90
2018-11-29T20:42:29.965Z,71.90
2018-11-29T20:44:33.495Z,72.10
2018-11-29T20:46:37.040Z,72.40
2018-11-29T20:48:40.754Z,72.30
2018-11-29T20:50:44.531Z,72.50
2018-11-29T20:52:48.913Z,73.50
2018-11-29T20:54:52.431Z,74.30
2018-11-29T20:56:55.983Z,75.20
2018-11-29T20:58:59.500Z,75.30
2018-11-29T21:01:03.011Z,74.00
2018-11-29T21:03:07.863Z,73.40
2018-11-29T21:05:15.583Z,73.20
2018-11-29T21:07:19.118Z,72.80
2018-11-29T21:09:22.651Z,72.80
2018-11-29T21:11:26.268Z,72.70
2018-11-29T21:13:29.999Z,72.70
2018-11-29T21:15:34.452Z,72.80
2018-11-29T21:17:38.002Z,73.20
2018-11-29T21:19:41.515Z,73.80
2018-11-29T21:21:45.180Z,73.30
2018-11-29T21:23:48.672Z,73.60
2018-11-29T21:25:52.215Z,73.20
2018-11-29T21:27:56.028Z,73.00
2018-11-29T21:29:59.584Z,73.10
2018-11-29T21:32:03.110Z,72.40
2018-11-29T21:34:06.762Z,72.20
2018-11-29T21:36:10.342Z,72.70
2018-11-29T21:38:16.057Z,72.80
2018-11-29T21:40:24.135Z,72.50
2018-11-29T21:42:27.618Z,73.20
2018-11-29T21:44:31.216Z,73.20
2018-11-29T21:46:34.754Z,72.80
2018-11-29T21:48:38.526Z,72.30
2018-11-29T21:50:42.137Z,72.00
2018-11-29T21:52:45.632Z,72.00
2018-11-29T21:54:49.129Z,71.80
2018-11-29T21:56:52.694Z,72.10
2018-11-29T21:58:56.274Z,72.40
2018-11-29T22:00:59.798Z,72.50
2018-11-29T22:03:03.618Z,72.80
2018-11-29T22:05:07.238Z,72.80
2018-11-29T22:07:10.834Z,72.30
2018-11-29T22:09:14.377Z,72.10
2018-11-29T22:11:18.094Z,72.00
2018-11-29T22:13:21.679Z,71.90
2018-11-29T22:15:25.328Z,71.90
2018-11-29T22:17:28.829Z,72.50
2018-11-29T22:19:32.369Z,73.00
2018-11-29T22:21:35.898Z,73.10
2018-11-29T22:23:40.284Z,73.50
2018-11-29T22:25:44.224Z,73.20
2018-11-29T22:27:48.036Z,73.20
2018-11-29T22:29:51.546Z,73.30
2018-11-29T22:31:55.179Z,73.00
2018-11-29T22:33:58.678Z,73.30
2018-11-29T22:36:02.479Z,73.70
2018-11-29T22:38:06.602Z,74.00
2018-11-29T22:40:10.218Z,74.00
2018-11-29T22:42:13.738Z,74.70
2018-11-29T22:44:17.408Z,73.80
2018-11-29T22:46:20.907Z,73.30
2018-11-29T22:48:25.002Z,72.70
2018-11-29T22:50:28.538Z,72.50
2018-11-29T22:52:32.048Z,72.50
2018-11-29T22:54:35.782Z,73.30
2018-11-29T22:56:39.355Z,72.30
2018-11-29T22:58:42.841Z,72.20
2018-11-29T23:00:53.093Z,72.00
2018-11-29T23:02:56.594Z,71.70
2018-11-29T23:05:00.113Z,71.60
2018-11-29T23:07:03.922Z,71.50
2018-11-29T23:09:09.238Z,71.50
2018-11-29T23:11:12.783Z,71.30
2018-11-29T23:13:16.313Z,71.20
2018-11-29T23:15:20.992Z,71.30
2018-11-29T23:17:24.532Z,71.30
2018-11-29T23:19:28.162Z,71.20
2018-11-29T23:21:31.857Z,71.30
2018-11-29T23:23:35.583Z,71.20
2018-11-29T23:25:39.264Z,71.40
2018-11-29T23:27:42.854Z,71.50
2018-11-29T23:29:46.405Z,71.50
2018-11-29T23:31:50.207Z,71.50
2018-11-29T23:33:54.155Z,71.60
2018-11-29T23:35:57.709Z,71.90
2018-11-29T23:38:01.227Z,71.80
2018-11-29T23:40:06.106Z,71.90
2018-11-29T23:42:09.747Z,72.40
2018-11-29T23:44:13.282Z,72.60
2018-11-29T23:46:16.816Z,72.30
2018-11-29T23:48:20.582Z,72.00
2018-11-29T23:50:24.164Z,72.20
2018-11-29T23:52:27.754Z,72.50
2018-11-29T23:54:31.290Z,72.60
2018-11-29T23:56:34.897Z,72.40
2018-11-29T23:58:38.406Z,72.30
